createdAt,value
2022-11-12T00:00:41.877Z,9.56
2022-11-12T00:05:45.249Z,9.41
2022-11-12T00:10:48.799Z,9.44
2022-11-12T00:15:53.628Z,9.55
2022-11-12T00:20:56.795Z,9.71
2022-11-12T00:26:01.187Z,9.72
2022-11-12T00:31:11.140Z,9.59
2022-11-12T00:36:14.485Z,9.58
2022-11-12T00:41:17.970Z,9.57
2022-11-12T00:46:22.780Z,9.36
2022-11-12T00:51:26.042Z,9.47
2022-11-12T00:56:35.290Z,9.41
2022-11-12T01:01:40.715Z,9.56
2022-11-12T01:06:44.532Z,9.65
2022-11-12T01:11:48.354Z,9.66
2022-11-12T01:16:53.015Z,9.88
2022-11-12T01:21:56.545Z,9.78
2022-11-12T01:26:59.813Z,9.85
2022-11-12T01:32:04.618Z,9.92
2022-11-12T01:37:07.909Z,9.74
2022-11-12T01:42:11.557Z,9.72
2022-11-12T01:47:22.685Z,9.81
2022-11-12T01:52:32.168Z,9.90
2022-11-12T01:57:41.605Z,9.90
2022-11-12T02:02:53.234Z,9.90
2022-11-12T02:07:58.671Z,9.91
2022-11-12T02:13:20.637Z,9.85
2022-11-12T02:18:25.593Z,9.77
2022-11-12T02:23:32.343Z,9.82
2022-11-12T02:28:35.900Z,9.91
2022-11-12T02:33:39.121Z,9.95
2022-11-12T02:38:44.129Z,10.03
2022-11-12T02:43:47.565Z,9.97
2022-11-12T02:48:50.918Z,9.94
2022-11-12T02:53:55.678Z,10.04
2022-11-12T02:58:58.924Z,10.10
2022-11-12T03:04:02.192Z,9.89
2022-11-12T03:09:06.848Z,10.11
2022-11-12T03:14:10.359Z,10.10
2022-11-12T03:19:13.823Z,10.06
2022-11-12T03:24:18.574Z,9.95
2022-11-12T03:29:21.612Z,10.19
2022-11-12T03:34:24.842Z,10.03
2022-11-12T03:39:29.576Z,10.11
2022-11-12T03:44:32.690Z,10.19
2022-11-12T03:49:36.241Z,10.03
2022-11-12T03:54:41.054Z,10.19
2022-11-12T03:59:44.230Z,10.28
2022-11-12T04:05:05.212Z,10.08
2022-11-12T04:10:10.489Z,10.15
2022-11-12T04:15:13.984Z,10.10
2022-11-12T04:20:34.976Z,10.19
2022-11-12T04:25:58.684Z,10.18
2022-11-12T04:31:02.050Z,10.01
2022-11-12T04:36:05.572Z,10.19
2022-11-12T04:41:28.264Z,10.11
2022-11-12T04:46:31.669Z,10.24
2022-11-12T04:51:52.489Z,10.17
2022-11-12T04:56:57.397Z,10.33
2022-11-12T05:02:00.667Z,10.33
2022-11-12T05:07:04.400Z,10.26
2022-11-12T05:12:09.544Z,10.34
2022-11-12T05:17:13.113Z,10.26
2022-11-12T05:22:40.384Z,10.38
2022-11-12T05:27:41.461Z,10.49
2022-11-12T05:32:44.735Z,10.36
2022-11-12T05:37:48.267Z,10.45
2022-11-12T05:42:53.018Z,10.55
2022-11-12T05:47:56.545Z,10.49
2022-11-12T05:53:00.146Z,10.46
2022-11-12T05:58:07.937Z,10.48
2022-11-12T06:03:12.739Z,10.53
2022-11-12T06:08:15.742Z,10.61
2022-11-12T06:13:20.858Z,10.65
2022-11-12T06:18:25.616Z,10.61
2022-11-12T06:23:29.203Z,10.67
2022-11-12T06:28:34.046Z,10.94
2022-11-12T06:33:37.490Z,10.91
2022-11-12T06:38:42.372Z,10.98
2022-11-12T06:43:47.229Z,11.14
2022-11-12T06:48:50.493Z,11.08
2022-11-12T06:53:55.302Z,11.03
2022-11-12T06:59:00.358Z,10.87
2022-11-12T07:04:03.766Z,10.95
2022-11-12T07:09:08.120Z,11.09
2022-11-12T07:14:13.159Z,11.07
2022-11-12T07:19:16.829Z,11.31
2022-11-12T07:24:20.157Z,11.43
2022-11-12T07:29:46.415Z,11.42
2022-11-12T07:34:48.540Z,11.25
2022-11-12T07:39:51.802Z,11.33
2022-11-12T07:44:56.422Z,11.42
2022-11-12T07:50:00.371Z,11.53
2022-11-12T07:55:03.604Z,11.59
2022-11-12T08:00:10.972Z,11.50
2022-11-12T08:05:18.833Z,11.67
2022-11-12T08:10:26.696Z,11.69
2022-11-12T08:15:31.694Z,11.55
2022-11-12T08:20:35.226Z,11.55
2022-11-12T08:25:38.645Z,11.42
2022-11-12T08:30:43.416Z,11.50
2022-11-12T08:35:46.493Z,11.44
2022-11-12T08:40:49.781Z,11.43
2022-11-12T08:45:54.532Z,11.68
2022-11-12T08:50:57.842Z,11.56
2022-11-12T08:56:01.493Z,11.47
2022-11-12T09:01:10.080Z,11.57
2022-11-12T09:06:13.534Z,11.58
2022-11-12T09:11:18.215Z,11.51
2022-11-12T09:16:24.522Z,11.43
2022-11-12T09:21:27.801Z,11.39
2022-11-12T09:26:31.241Z,11.28
2022-11-12T09:31:35.880Z,11.44
2022-11-12T09:36:40.098Z,11.52
2022-11-12T09:41:44.287Z,11.53
2022-11-12T09:46:52.994Z,11.70
2022-11-12T09:52:02.754Z,11.83
2022-11-12T09:57:11.369Z,11.70
2022-11-12T10:02:28.853Z,11.79
2022-11-12T10:07:47.839Z,12.08
2022-11-12T10:13:04.867Z,11.94
2022-11-12T10:18:12.800Z,11.93
2022-11-12T10:23:20.829Z,11.83
2022-11-12T10:28:34.278Z,11.93
2022-11-12T10:33:42.017Z,11.94
2022-11-12T10:38:46.525Z,11.98
2022-11-12T10:43:58.567Z,11.81
2022-11-12T10:49:05.346Z,11.47
2022-11-12T10:54:29.300Z,11.50
2022-11-12T10:59:34.047Z,11.50
2022-11-12T11:04:39.288Z,11.66
2022-11-12T11:09:54.108Z,11.58
2022-11-12T11:15:20.167Z,11.73
2022-11-12T11:20:27.585Z,11.50
2022-11-12T11:25:32.853Z,11.44
2022-11-12T11:30:46.860Z,11.49
2022-11-12T11:36:04.914Z,11.53
2022-11-12T11:41:30.409Z,11.54
2022-11-12T11:46:49.737Z,11.69
2022-11-12T11:52:03.139Z,11.55
2022-11-12T11:57:13.141Z,11.57
2022-11-12T12:02:30.152Z,11.73
2022-11-12T12:07:43.437Z,11.86
2022-11-12T12:12:59.065Z,11.96
2022-11-12T12:18:13.887Z,11.92
2022-11-12T12:23:23.409Z,11.95
2022-11-12T12:28:37.790Z,11.84
2022-11-12T12:33:48.394Z,11.91
2022-11-12T12:38:57.337Z,12.04
2022-11-12T12:44:05.732Z,12.22
2022-11-12T12:49:14.541Z,11.98
2022-11-12T12:54:54.786Z,12.03
2022-11-12T13:00:33.816Z,12.07
2022-11-12T13:05:40.404Z,12.07
2022-11-12T13:10:49.717Z,12.13
2022-11-12T13:15:56.255Z,12.05
2022-11-12T13:21:12.110Z,12.07
2022-11-12T13:26:54.220Z,12.13
2022-11-12T13:32:32.374Z,12.16
2022-11-12T13:37:35.913Z,12.06
2022-11-12T13:42:52.295Z,12.10
2022-11-12T13:47:59.630Z,12.09
2022-11-12T13:53:03.361Z,12.13
2022-11-12T13:58:19.772Z,12.18
2022-11-12T14:03:27.084Z,12.24
2022-11-12T14:08:56.974Z,12.13
2022-11-12T14:14:13.405Z,12.10
2022-11-12T14:19:52.836Z,12.21
2022-11-12T14:25:01.580Z,12.18
2022-11-12T14:30:15.310Z,12.30
2022-11-12T14:35:36.197Z,12.38
2022-11-12T14:40:45.538Z,12.28
2022-11-12T14:45:50.368Z,12.38
2022-11-12T14:51:08.001Z,12.46
2022-11-12T14:56:17.823Z,12.49
2022-11-12T15:06:58.541Z,12.49
2022-11-12T15:12:02.153Z,12.41
2022-11-12T15:17:06.442Z,12.37
2022-11-12T15:22:22.979Z,12.44
2022-11-12T15:27:36.374Z,12.39
2022-11-12T15:32:39.593Z,12.37
2022-11-12T15:37:44.671Z,12.41
2022-11-12T15:42:49.339Z,12.40
2022-11-12T15:47:52.937Z,12.37
2022-11-12T15:52:59.584Z,12.46
2022-11-12T15:58:03.146Z,12.46
2022-11-12T16:03:15.049Z,12.45
2022-11-12T16:08:20.464Z,12.37
2022-11-12T16:13:29.381Z,12.35
2022-11-12T16:18:32.982Z,12.37
2022-11-12T16:23:40.122Z,12.19
2022-11-12T16:28:44.038Z,12.16
2022-11-12T16:33:47.585Z,12.03
2022-11-12T16:38:52.503Z,11.89
2022-11-12T16:43:55.897Z,11.83
2022-11-12T16:48:59.372Z,11.77
2022-11-12T16:54:04.160Z,11.73
2022-11-12T16:59:07.710Z,11.65
2022-11-12T17:04:11.613Z,11.61
2022-11-12T17:09:18.718Z,11.59
2022-11-12T17:14:27.105Z,11.59
2022-11-12T17:19:31.943Z,11.72
2022-11-12T17:24:36.691Z,11.65
2022-11-12T17:29:40.289Z,11.63
2022-11-12T17:34:43.702Z,11.67
2022-11-12T17:39:48.481Z,11.57
2022-11-12T17:44:51.891Z,11.63
2022-11-12T17:49:55.662Z,11.45
2022-11-12T17:55:00.484Z,11.42
2022-11-12T18:00:04.314Z,11.33
2022-11-12T18:05:10.526Z,11.36
2022-11-12T18:10:19.396Z,11.39
2022-11-12T18:15:23.196Z,11.47
2022-11-12T18:20:26.730Z,11.50
2022-11-12T18:25:31.513Z,11.46
2022-11-12T18:30:36.666Z,11.36
2022-11-12T18:35:40.127Z,11.23
2022-11-12T18:40:44.983Z,11.16
2022-11-12T18:45:55.423Z,11.11
2022-11-12T18:51:03.748Z,11.16
2022-11-12T18:56:14.769Z,11.25
2022-11-12T19:01:21.137Z,11.39
2022-11-12T19:06:26.719Z,11.57
2022-11-12T19:11:31.571Z,11.67
2022-11-12T19:16:34.977Z,11.71
2022-11-12T19:21:39.262Z,11.74
2022-11-12T19:26:43.976Z,11.76
2022-11-12T19:31:47.272Z,11.78
2022-11-12T19:37:11.850Z,11.71
2022-11-12T19:42:15.498Z,11.75
2022-11-12T19:47:18.744Z,11.73
2022-11-12T19:52:22.601Z,11.66
2022-11-12T19:57:28.081Z,11.71
2022-11-12T20:02:31.494Z,11.62
2022-11-12T20:07:35.050Z,11.52
2022-11-12T20:12:40.697Z,11.46
2022-11-12T20:17:44.292Z,11.43
2022-11-12T20:22:47.539Z,11.36
2022-11-12T20:27:52.458Z,11.20
2022-11-12T20:32:55.876Z,11.10
2022-11-12T20:38:00.167Z,10.90
2022-11-12T20:43:05.034Z,10.89
2022-11-12T20:48:08.461Z,10.69
2022-11-12T20:53:12.763Z,10.73
2022-11-12T20:58:17.592Z,10.76
2022-11-12T21:03:21.234Z,10.71
2022-11-12T21:08:24.955Z,10.74
2022-11-12T21:13:29.860Z,10.74
2022-11-12T21:18:34.172Z,10.69
2022-11-12T21:23:39.105Z,10.56
2022-11-12T21:28:45.881Z,10.50
2022-11-12T21:33:51.125Z,10.51
2022-11-12T21:38:54.751Z,10.44
2022-11-12T21:43:59.607Z,10.36
2022-11-12T21:49:03.308Z,10.30
2022-11-12T21:54:08.360Z,10.24
2022-11-12T21:59:13.091Z,10.27
2022-11-12T22:04:18.458Z,10.39
2022-11-12T22:09:21.796Z,10.47
2022-11-12T22:14:26.405Z,10.41
2022-11-12T22:19:29.884Z,10.36
2022-11-12T22:24:33.310Z,10.38
2022-11-12T22:29:38.044Z,10.32
2022-11-12T22:34:43.747Z,10.21
2022-11-12T22:39:49.049Z,10.17
2022-11-12T22:44:53.773Z,10.28
2022-11-12T22:49:56.761Z,10.32
2022-11-12T22:55:00.051Z,10.18
2022-11-12T23:00:09.580Z,10.20
2022-11-12T23:05:13.108Z,10.26
2022-11-12T23:10:16.400Z,10.34
2022-11-12T23:15:21.115Z,10.45
2022-11-12T23:20:24.723Z,10.43
2022-11-12T23:25:28.121Z,10.47
2022-11-12T23:30:32.825Z,10.53
2022-11-12T23:35:35.857Z,10.51
2022-11-12T23:40:39.230Z,10.26
2022-11-12T23:45:44.260Z,10.27
2022-11-12T23:50:49.416Z,10.28
2022-11-12T23:55:53.031Z,10.23
